createdAt,value
2023-03-18T00:02:11.941Z,13.07
2023-03-18T00:04:40.974Z,12.60
2023-03-18T00:07:08.504Z,10.77
2023-03-18T00:09:35.918Z,11.55
2023-03-18T00:12:03.144Z,11.63
2023-03-18T00:14:30.665Z,11.38
2023-03-18T00:16:57.816Z,10.60
2023-03-18T00:19:25.396Z,10.75
2023-03-18T00:21:52.428Z,11.40
2023-03-18T00:24:19.532Z,10.23
2023-03-18T00:26:46.593Z,10.57
2023-03-18T00:29:13.776Z,10.73
2023-03-18T00:31:40.977Z,11.38
2023-03-18T00:34:08.279Z,11.00
2023-03-18T00:36:36.488Z,11.57
2023-03-18T00:39:04.216Z,10.73
2023-03-18T00:41:34.647Z,10.18
2023-03-18T00:44:02.054Z,9.77
2023-03-18T00:46:32.487Z,9.65
2023-03-18T00:49:02.251Z,9.75
2023-03-18T00:51:32.523Z,9.90
2023-03-18T00:54:02.320Z,10.52
2023-03-18T00:56:32.196Z,9.57
2023-03-18T00:59:00.372Z,10.23
2023-03-18T01:01:28.450Z,10.10
2023-03-18T01:03:56.281Z,11.02
2023-03-18T01:06:28.518Z,10.60
2023-03-18T01:08:56.996Z,10.35
2023-03-18T01:11:24.734Z,9.45
2023-03-18T01:13:53.168Z,9.80
2023-03-18T01:16:22.103Z,10.63
2023-03-18T01:18:49.950Z,10.88
2023-03-18T01:21:18.200Z,11.30
2023-03-18T01:23:45.434Z,12.25
2023-03-18T01:26:12.791Z,12.10
2023-03-18T01:28:39.862Z,11.70
2023-03-18T01:31:08.301Z,11.23
2023-03-18T01:33:35.922Z,10.20
2023-03-18T01:36:05.212Z,10.07
2023-03-18T01:38:33.116Z,10.50
2023-03-18T01:41:01.181Z,10.00
2023-03-18T01:43:31.875Z,11.75
2023-03-18T01:46:01.439Z,10.52
2023-03-18T01:48:38.163Z,10.90
2023-03-18T01:51:10.386Z,11.48
2023-03-18T01:53:44.985Z,8.67
2023-03-18T01:56:13.509Z,10.05
2023-03-18T01:58:46.763Z,11.48
2023-03-18T02:01:23.852Z,9.88
2023-03-18T02:03:52.392Z,9.75
2023-03-18T02:06:19.937Z,9.77
2023-03-18T02:08:48.073Z,10.10
2023-03-18T02:11:16.187Z,10.32
2023-03-18T02:13:46.188Z,10.38
2023-03-18T02:16:25.728Z,9.75
2023-03-18T02:18:56.689Z,9.75
2023-03-18T02:21:52.247Z,10.60
2023-03-18T02:24:40.760Z,10.07
2023-03-18T02:27:42.215Z,10.00
2023-03-18T02:30:18.981Z,10.18
2023-03-18T02:32:48.657Z,10.98
2023-03-18T02:35:15.709Z,10.55
2023-03-18T02:37:42.835Z,10.63
2023-03-18T02:40:20.483Z,10.50
2023-03-18T02:42:48.778Z,10.55
2023-03-18T02:45:58.201Z,10.65
2023-03-18T02:48:30.334Z,10.52
2023-03-18T02:50:57.742Z,11.02
2023-03-18T02:53:24.826Z,10.60
2023-03-18T02:55:52.300Z,10.85
2023-03-18T02:58:19.496Z,11.48
2023-03-18T03:00:46.722Z,10.70
2023-03-18T03:03:14.141Z,11.43
2023-03-18T03:05:42.126Z,10.80
2023-03-18T03:08:10.120Z,10.77
2023-03-18T03:10:37.811Z,10.57
2023-03-18T03:13:06.549Z,10.95
2023-03-18T03:15:34.079Z,10.10
2023-03-18T03:18:01.250Z,9.82
2023-03-18T03:20:29.150Z,10.00
2023-03-18T03:22:56.343Z,10.52
2023-03-18T03:25:23.723Z,9.90
2023-03-18T03:27:51.225Z,10.02
2023-03-18T03:30:18.608Z,10.35
2023-03-18T03:32:46.597Z,10.02
2023-03-18T03:35:16.402Z,10.32
2023-03-18T03:37:44.122Z,10.43
2023-03-18T03:40:15.503Z,10.48
2023-03-18T03:42:42.843Z,10.85
2023-03-18T03:45:11.543Z,12.38
2023-03-18T03:47:38.900Z,12.50
2023-03-18T03:50:07.029Z,12.40
2023-03-18T03:52:34.304Z,12.65
2023-03-18T03:55:01.354Z,12.73
2023-03-18T03:57:28.452Z,12.63
2023-03-18T03:59:56.535Z,12.40
2023-03-18T04:02:24.391Z,11.30
2023-03-18T04:04:51.859Z,12.52
2023-03-18T04:07:19.537Z,12.02
2023-03-18T04:09:46.993Z,12.70
2023-03-18T04:12:14.854Z,12.73
2023-03-18T04:14:41.955Z,12.20
2023-03-18T04:17:09.785Z,14.40
2023-03-18T04:19:37.621Z,13.43
2023-03-18T04:22:04.758Z,13.07
2023-03-18T04:24:32.964Z,13.80
2023-03-18T04:27:00.051Z,12.27
2023-03-18T04:29:27.176Z,12.27
2023-03-18T04:31:54.767Z,11.60
2023-03-18T04:34:22.375Z,10.80
2023-03-18T04:36:49.390Z,12.15
2023-03-18T04:39:16.527Z,11.43
2023-03-18T04:41:43.682Z,12.05
2023-03-18T04:44:10.854Z,10.48
2023-03-18T04:46:38.154Z,10.70
2023-03-18T04:49:08.236Z,10.27
2023-03-18T04:51:35.438Z,10.52
2023-03-18T04:54:02.555Z,10.07
2023-03-18T04:56:30.178Z,10.60
2023-03-18T04:58:57.668Z,9.45
2023-03-18T05:01:24.769Z,11.02
2023-03-18T05:03:52.062Z,10.73
2023-03-18T05:06:30.498Z,10.68
2023-03-18T05:08:59.111Z,10.50
2023-03-18T05:11:27.293Z,10.65
2023-03-18T05:13:54.368Z,10.57
2023-03-18T05:16:21.422Z,13.27
2023-03-18T05:18:48.792Z,15.18
2023-03-18T05:21:16.057Z,17.23
2023-03-18T05:23:43.645Z,16.30
2023-03-18T05:26:11.775Z,18.10
2023-03-18T05:28:55.525Z,17.90
2023-03-18T05:31:26.711Z,19.33
2023-03-18T05:33:58.225Z,18.38
2023-03-18T05:36:27.792Z,17.80
2023-03-18T05:38:58.205Z,15.55
2023-03-18T05:41:29.835Z,14.32
2023-03-18T05:44:02.660Z,13.63
2023-03-18T05:46:34.596Z,10.90
2023-03-18T05:49:04.699Z,15.05
2023-03-18T05:51:32.478Z,14.30
2023-03-18T05:54:04.297Z,14.05
2023-03-18T05:56:36.397Z,15.68
2023-03-18T05:59:08.086Z,17.20
2023-03-18T06:01:36.433Z,15.95
2023-03-18T06:04:06.262Z,16.90
2023-03-18T06:06:42.758Z,15.68
2023-03-18T06:09:16.612Z,15.95
2023-03-18T06:11:48.053Z,14.10
2023-03-18T06:14:15.405Z,15.50
2023-03-18T06:16:42.910Z,14.02
2023-03-18T06:19:15.201Z,15.45
2023-03-18T06:21:47.201Z,14.68
2023-03-18T06:24:18.434Z,14.07
2023-03-18T06:26:50.263Z,13.95
2023-03-18T06:29:24.263Z,14.05
2023-03-18T06:31:52.681Z,14.43
2023-03-18T06:34:24.358Z,15.90
2023-03-18T06:36:52.778Z,13.75
2023-03-18T06:39:20.302Z,14.25
2023-03-18T06:41:47.564Z,15.00
2023-03-18T06:44:15.226Z,15.43
2023-03-18T06:46:47.073Z,14.07
2023-03-18T06:49:19.265Z,11.88
2023-03-18T06:51:52.602Z,12.20
2023-03-18T06:56:51.825Z,14.10
2023-03-18T06:59:25.588Z,13.95
2023-03-18T07:01:57.329Z,17.77
2023-03-18T07:04:29.152Z,16.95
2023-03-18T07:06:58.852Z,16.85
2023-03-18T07:09:28.009Z,17.10
2023-03-18T07:12:01.007Z,15.63
2023-03-18T07:14:32.585Z,14.80
2023-03-18T07:17:03.054Z,14.27
2023-03-18T07:19:35.541Z,15.52
2023-03-18T07:22:07.418Z,15.25
2023-03-18T07:24:36.109Z,15.68
2023-03-18T07:27:10.241Z,14.85
2023-03-18T07:29:38.172Z,15.57
2023-03-18T07:32:05.608Z,14.05
2023-03-18T07:34:34.137Z,13.90
2023-03-18T07:37:06.598Z,13.82
2023-03-18T07:39:39.988Z,15.10
2023-03-18T07:42:09.641Z,18.08
2023-03-18T07:44:37.389Z,15.68
2023-03-18T07:47:04.865Z,15.48
2023-03-18T07:49:34.772Z,15.15
2023-03-18T07:52:02.414Z,15.52
2023-03-18T07:54:29.550Z,15.02
2023-03-18T07:56:56.943Z,13.93
2023-03-18T07:59:24.658Z,14.73
2023-03-18T08:01:51.866Z,14.27
2023-03-18T08:04:19.869Z,14.30
2023-03-18T08:06:47.653Z,13.63
2023-03-18T08:09:19.197Z,12.52
2023-03-18T08:11:51.697Z,12.00
2023-03-18T08:14:19.231Z,11.23
2023-03-18T08:16:52.411Z,10.70
2023-03-18T08:19:24.537Z,10.00
2023-03-18T08:21:57.246Z,10.73
2023-03-18T08:24:25.931Z,10.60
2023-03-18T08:26:57.431Z,10.25
2023-03-18T08:29:27.840Z,9.90
2023-03-18T08:31:59.835Z,10.23
2023-03-18T08:34:31.666Z,10.52
2023-03-18T08:36:59.831Z,9.73
2023-03-18T08:39:34.626Z,11.48
2023-03-18T08:42:09.817Z,10.98
2023-03-18T08:44:37.338Z,10.65
2023-03-18T08:47:04.418Z,11.52
2023-03-18T08:49:31.562Z,10.65
2023-03-18T08:51:58.837Z,12.70
2023-03-18T08:54:26.167Z,11.93
2023-03-18T08:56:55.295Z,13.32
2023-03-18T08:59:22.522Z,12.40
2023-03-18T09:01:49.572Z,15.75
2023-03-18T09:04:16.797Z,18.83
2023-03-18T09:06:43.878Z,19.55
2023-03-18T09:09:11.886Z,18.85
2023-03-18T09:11:40.062Z,19.08
2023-03-18T09:14:07.513Z,19.13
2023-03-18T09:16:35.937Z,18.20
2023-03-18T09:19:03.964Z,18.40
2023-03-18T09:21:31.687Z,17.23
2023-03-18T09:23:59.187Z,16.73
2023-03-18T09:26:26.409Z,15.48
2023-03-18T09:28:53.739Z,14.85
2023-03-18T09:31:21.061Z,14.35
2023-03-18T09:33:48.558Z,13.68
2023-03-18T09:36:15.859Z,9.88
2023-03-18T09:38:42.906Z,9.52
2023-03-18T09:41:38.519Z,9.43
2023-03-18T09:44:20.926Z,8.75
2023-03-18T09:46:53.823Z,10.80
2023-03-18T09:52:16.950Z,8.60
2023-03-18T09:54:53.030Z,9.60
2023-03-18T09:57:38.969Z,9.00
2023-03-18T10:00:11.794Z,7.88
2023-03-18T10:02:48.533Z,9.77
2023-03-18T10:05:21.901Z,8.68
2023-03-18T10:07:53.076Z,8.60
2023-03-18T10:10:32.074Z,7.97
2023-03-18T10:13:28.788Z,8.85
2023-03-18T10:15:58.786Z,8.48
2023-03-18T10:18:38.281Z,7.68
2023-03-18T10:21:25.217Z,7.03
2023-03-18T10:24:21.705Z,8.18
2023-03-18T10:27:09.705Z,7.55
2023-03-18T10:29:52.464Z,8.73
2023-03-18T10:32:42.854Z,8.35
2023-03-18T10:35:47.902Z,7.68
2023-03-18T10:38:24.353Z,8.02
2023-03-18T10:40:52.660Z,6.90
2023-03-18T10:43:28.403Z,7.18
2023-03-18T10:46:04.438Z,7.32
2023-03-18T10:48:35.879Z,7.50
2023-03-18T10:51:02.969Z,7.43
2023-03-18T10:53:54.154Z,6.95
2023-03-18T10:56:22.588Z,7.90
2023-03-18T10:58:52.502Z,8.40
2023-03-18T11:01:23.402Z,7.45
2023-03-18T11:03:54.946Z,7.05
2023-03-18T11:06:34.872Z,7.97
2023-03-18T11:09:08.600Z,7.93
2023-03-18T11:11:39.696Z,7.70
2023-03-18T11:14:13.302Z,8.05
2023-03-18T11:16:42.699Z,6.95
2023-03-18T11:19:52.186Z,5.72
2023-03-18T11:22:24.877Z,4.90
2023-03-18T11:25:24.326Z,4.82
2023-03-18T11:27:58.418Z,5.47
2023-03-18T11:30:34.687Z,5.20
2023-03-18T11:33:14.358Z,4.80
2023-03-18T11:35:45.494Z,5.40
2023-03-18T11:38:30.677Z,5.88
2023-03-18T11:41:10.255Z,5.45
2023-03-18T11:43:38.604Z,6.13
2023-03-18T11:46:08.414Z,4.90
2023-03-18T11:48:37.006Z,5.30
2023-03-18T11:51:25.206Z,5.30
2023-03-18T11:53:56.677Z,5.63
2023-03-18T11:56:41.697Z,5.10
2023-03-18T11:59:57.081Z,6.05
2023-03-18T12:02:42.842Z,5.25
2023-03-18T12:05:25.826Z,5.03
2023-03-18T12:08:09.902Z,5.68
2023-03-18T12:10:48.815Z,4.65
2023-03-18T12:13:19.696Z,4.80
2023-03-18T12:15:49.740Z,4.28
2023-03-18T12:18:26.007Z,4.00
2023-03-18T12:20:55.615Z,3.80
2023-03-18T12:23:54.017Z,3.50
2023-03-18T12:26:38.757Z,3.88
2023-03-18T12:29:14.824Z,3.75
2023-03-18T12:31:56.444Z,4.18
2023-03-18T12:35:01.453Z,4.57
2023-03-18T12:37:47.501Z,4.30
2023-03-18T12:40:37.565Z,4.85
2023-03-18T12:43:19.794Z,4.80
2023-03-18T12:45:51.119Z,4.55
2023-03-18T12:48:43.247Z,5.25
2023-03-18T12:51:15.491Z,4.90
2023-03-18T12:53:58.428Z,5.18
2023-03-18T12:56:30.197Z,5.13
2023-03-18T12:59:46.360Z,4.47
2023-03-18T13:02:44.333Z,4.60
2023-03-18T13:05:27.705Z,5.75
2023-03-18T13:08:06.836Z,5.45
2023-03-18T13:10:36.587Z,5.75
2023-03-18T13:13:08.772Z,5.32
2023-03-18T13:15:43.289Z,4.97
2023-03-18T13:18:20.797Z,4.95
2023-03-18T13:20:49.628Z,5.72
2023-03-18T13:23:32.937Z,6.00
2023-03-18T13:26:25.752Z,5.63
2023-03-18T13:29:19.918Z,5.82
2023-03-18T13:31:59.533Z,5.68
2023-03-18T13:34:44.051Z,5.57
2023-03-18T13:37:34.735Z,5.22
2023-03-18T13:40:31.056Z,4.80
2023-03-18T13:43:02.604Z,4.88
2023-03-18T13:45:37.883Z,4.45
2023-03-18T13:48:36.997Z,5.00
2023-03-18T13:51:28.226Z,5.15
2023-03-18T13:54:02.410Z,4.80
2023-03-18T13:56:40.457Z,4.60
2023-03-18T13:59:31.116Z,5.28
2023-03-18T14:02:19.701Z,4.35
2023-03-18T14:04:49.515Z,4.47
2023-03-18T14:07:22.015Z,4.70
2023-03-18T14:10:17.092Z,4.97
2023-03-18T14:12:48.040Z,4.32
2023-03-18T14:15:15.846Z,4.38
2023-03-18T14:17:53.161Z,4.70
2023-03-18T14:20:22.040Z,4.50
2023-03-18T14:22:55.095Z,4.68
2023-03-18T14:25:31.496Z,4.38
2023-03-18T14:28:14.915Z,4.45
2023-03-18T14:31:08.834Z,3.90
2023-03-18T14:33:52.030Z,4.32
2023-03-18T14:36:47.634Z,4.18
2023-03-18T14:39:22.294Z,4.82
2023-03-18T14:41:55.646Z,4.30
2023-03-18T14:44:34.468Z,3.50
2023-03-18T14:47:06.854Z,4.28
2023-03-18T14:49:59.896Z,4.07
2023-03-18T14:52:39.745Z,4.20
2023-03-18T14:55:29.478Z,4.10
2023-03-18T14:58:05.256Z,4.07
2023-03-18T15:00:43.018Z,4.30
2023-03-18T15:03:30.996Z,4.72
2023-03-18T15:06:09.153Z,4.28
2023-03-18T15:08:54.401Z,4.60
2023-03-18T15:11:31.548Z,4.53
2023-03-18T15:14:09.787Z,5.25
2023-03-18T15:16:44.634Z,4.47
2023-03-18T15:19:23.503Z,5.22
2023-03-18T15:21:54.470Z,4.78
2023-03-18T15:24:33.047Z,5.03
2023-03-18T15:27:13.405Z,4.93
2023-03-18T15:30:02.966Z,5.55
2023-03-18T15:32:53.044Z,5.55
2023-03-18T15:35:33.640Z,5.18
2023-03-18T15:38:22.950Z,5.47
2023-03-18T15:41:01.519Z,6.05
2023-03-18T15:44:00.276Z,5.60
2023-03-18T15:46:34.828Z,5.50
2023-03-18T15:49:09.379Z,5.25
2023-03-18T15:51:45.236Z,5.57
2023-03-18T15:54:42.186Z,5.57
2023-03-18T15:57:47.528Z,5.57
2023-03-18T16:00:16.446Z,5.60
2023-03-18T16:02:51.705Z,5.80
2023-03-18T16:05:26.269Z,6.38
2023-03-18T16:08:01.421Z,6.13
2023-03-18T16:10:28.620Z,5.45
2023-03-18T16:13:02.023Z,5.32
2023-03-18T16:15:37.312Z,5.10
2023-03-18T16:18:14.732Z,6.00
2023-03-18T16:20:52.535Z,6.25
2023-03-18T16:23:30.531Z,6.18
2023-03-18T16:26:06.126Z,5.97
2023-03-18T16:28:47.022Z,5.68
2023-03-18T16:31:23.384Z,6.18
2023-03-18T16:34:00.107Z,5.93
2023-03-18T16:36:41.372Z,6.63
2023-03-18T16:39:33.225Z,6.22
2023-03-18T16:42:11.186Z,6.60
2023-03-18T16:44:41.633Z,6.82
2023-03-18T16:47:31.096Z,6.57
2023-03-18T16:50:03.324Z,6.82
2023-03-18T16:52:34.408Z,6.90
2023-03-18T16:55:02.584Z,6.70
2023-03-18T16:57:29.808Z,6.75
2023-03-18T16:59:58.298Z,7.65
2023-03-18T17:02:35.953Z,7.53
2023-03-18T17:05:04.793Z,8.00
2023-03-18T17:07:40.632Z,8.27
2023-03-18T17:10:11.637Z,9.75
2023-03-18T17:12:47.907Z,20.67
2023-03-18T17:15:27.404Z,25.45
2023-03-18T17:18:02.650Z,26.77
2023-03-18T17:20:38.802Z,27.08
2023-03-18T17:23:06.798Z,25.50
2023-03-18T17:25:34.156Z,28.55
2023-03-18T17:28:15.284Z,30.20
2023-03-18T17:30:52.304Z,22.83
2023-03-18T17:33:36.268Z,22.13
2023-03-18T17:36:13.836Z,21.52
2023-03-18T17:38:49.427Z,21.17
2023-03-18T17:41:23.172Z,21.92
2023-03-18T17:46:31.405Z,20.77
2023-03-18T17:49:09.650Z,23.85
2023-03-18T17:51:39.034Z,23.65
2023-03-18T17:54:13.088Z,22.05
2023-03-18T17:56:45.231Z,20.60
2023-03-18T17:59:17.968Z,15.80
2023-03-18T18:01:54.964Z,14.13
2023-03-18T18:04:34.207Z,16.02
2023-03-18T18:07:09.667Z,17.23
2023-03-18T18:09:38.038Z,17.52
2023-03-18T18:12:08.368Z,18.27
2023-03-18T18:14:44.346Z,15.80
2023-03-18T18:17:21.130Z,15.30
2023-03-18T18:19:55.209Z,18.40
2023-03-18T18:22:28.537Z,20.75
2023-03-18T18:25:06.236Z,20.20
2023-03-18T18:27:43.605Z,20.83
2023-03-18T18:30:18.650Z,19.77
2023-03-18T18:32:54.653Z,22.60
2023-03-18T18:35:25.794Z,22.00
2023-03-18T18:37:53.608Z,30.85
2023-03-18T18:40:22.480Z,30.77
2023-03-18T18:42:59.694Z,29.40
2023-03-18T18:45:28.388Z,29.92
2023-03-18T18:47:58.561Z,29.67
2023-03-18T18:50:32.624Z,32.78
2023-03-18T18:53:02.123Z,33.08
2023-03-18T18:55:35.008Z,34.53
2023-03-18T18:58:12.103Z,39.30
2023-03-18T19:00:44.584Z,37.03
2023-03-18T19:03:25.940Z,39.30
2023-03-18T19:06:03.612Z,38.55
2023-03-18T19:08:43.917Z,40.20
2023-03-18T19:11:20.097Z,41.83
2023-03-18T19:13:57.923Z,44.33
2023-03-18T19:16:38.466Z,44.03
2023-03-18T19:19:17.907Z,42.38
2023-03-18T19:21:54.007Z,38.88
2023-03-18T19:24:27.089Z,38.88
2023-03-18T19:26:56.334Z,37.03
2023-03-18T19:29:23.903Z,37.22
2023-03-18T19:31:51.313Z,37.60
2023-03-18T19:34:20.305Z,51.75
2023-03-18T19:36:56.105Z,46.00
2023-03-18T19:39:24.686Z,49.33
2023-03-18T19:41:52.361Z,49.25
2023-03-18T19:44:22.074Z,72.80
2023-03-18T19:46:51.954Z,76.32
2023-03-18T19:49:25.034Z,71.05
2023-03-18T19:54:34.133Z,46.08
2023-03-18T19:57:38.918Z,40.90
2023-03-18T20:00:20.104Z,35.53
2023-03-18T20:02:49.344Z,33.83
2023-03-18T20:05:19.509Z,33.88
2023-03-18T20:07:47.561Z,31.58
2023-03-18T20:10:15.403Z,32.90
2023-03-18T20:12:50.763Z,34.78
2023-03-18T20:15:25.265Z,38.15
2023-03-18T20:17:54.003Z,39.22
2023-03-18T20:20:24.872Z,37.97
2023-03-18T20:23:33.845Z,39.58
2023-03-18T20:26:01.199Z,34.40
2023-03-18T20:28:28.384Z,31.33
2023-03-18T20:30:57.189Z,28.38
2023-03-18T20:33:24.619Z,28.05
2023-03-18T20:35:56.840Z,29.02
2023-03-18T20:38:39.121Z,26.73
2023-03-18T20:41:07.345Z,29.83
2023-03-18T20:43:37.657Z,28.33
2023-03-18T20:46:05.736Z,26.42
2023-03-18T20:48:33.052Z,29.02
2023-03-18T20:51:00.119Z,26.63
2023-03-18T20:53:32.003Z,27.15
2023-03-18T20:55:59.028Z,26.27
2023-03-18T20:58:28.208Z,27.17
2023-03-18T21:00:55.640Z,27.05
2023-03-18T21:03:31.003Z,26.23
2023-03-18T21:06:00.778Z,24.70
2023-03-18T21:08:29.106Z,24.10
2023-03-18T21:11:00.353Z,23.00
2023-03-18T21:13:33.448Z,21.08
2023-03-18T21:16:01.596Z,23.05
2023-03-18T21:18:29.666Z,23.73
2023-03-18T21:20:57.790Z,21.15
2023-03-18T21:23:30.556Z,22.13
2023-03-18T21:25:58.737Z,20.67
2023-03-18T21:28:29.144Z,20.50
2023-03-18T21:31:00.004Z,19.42
2023-03-18T21:33:35.322Z,18.98
2023-03-18T21:36:03.334Z,20.77
2023-03-18T21:38:32.633Z,25.08
2023-03-18T21:41:12.071Z,19.73
2023-03-18T21:43:40.778Z,17.90
2023-03-18T21:46:16.415Z,15.98
2023-03-18T21:48:43.781Z,17.88
2023-03-18T21:51:37.611Z,17.52
2023-03-18T21:54:06.599Z,15.63
2023-03-18T21:56:33.849Z,16.80
2023-03-18T21:59:01.205Z,16.77
2023-03-18T22:01:32.373Z,14.93
2023-03-18T22:04:00.027Z,16.20
2023-03-18T22:06:27.547Z,16.35
2023-03-18T22:08:57.004Z,16.42
2023-03-18T22:11:24.287Z,16.00
2023-03-18T22:13:51.548Z,15.63
2023-03-18T22:16:19.128Z,15.10
2023-03-18T22:18:47.516Z,15.15
2023-03-18T22:21:26.507Z,15.73
2023-03-18T22:23:54.355Z,15.23
2023-03-18T22:26:22.255Z,16.13
2023-03-18T22:28:50.762Z,15.23
2023-03-18T22:31:27.581Z,15.27
2023-03-18T22:33:55.071Z,14.57
2023-03-18T22:36:23.931Z,15.88
2023-03-18T22:38:51.203Z,16.40
2023-03-18T22:41:24.049Z,15.70
2023-03-18T22:43:51.847Z,15.48
2023-03-18T22:46:19.029Z,14.90
2023-03-18T22:48:46.196Z,17.10
2023-03-18T22:51:23.680Z,15.27
2023-03-18T22:53:53.447Z,15.65
2023-03-18T22:56:22.378Z,15.18
2023-03-18T22:58:49.949Z,14.05
2023-03-18T23:01:19.898Z,13.77
2023-03-18T23:03:47.726Z,13.52
2023-03-18T23:06:20.387Z,13.75
2023-03-18T23:08:47.711Z,13.38
2023-03-18T23:11:15.252Z,13.23
2023-03-18T23:13:44.508Z,13.48
2023-03-18T23:16:17.119Z,13.07
2023-03-18T23:18:44.387Z,14.07
2023-03-18T23:21:17.214Z,15.25
2023-03-18T23:23:44.661Z,14.07
2023-03-18T23:26:12.082Z,15.10
2023-03-18T23:28:44.441Z,15.93
2023-03-18T23:31:13.305Z,13.80
2023-03-18T23:33:40.675Z,13.73
2023-03-18T23:36:08.381Z,14.27
2023-03-18T23:38:35.630Z,14.85
2023-03-18T23:41:02.875Z,13.60
2023-03-18T23:43:29.969Z,12.80
2023-03-18T23:45:57.216Z,13.10
2023-03-18T23:48:24.446Z,15.68
2023-03-18T23:50:51.549Z,13.82
2023-03-18T23:53:18.703Z,12.95
2023-03-18T23:55:48.301Z,13.07
2023-03-18T23:58:15.708Z,12.70
